Time;durP1;ratioP1;P1;durP2;ratioP2;P2;SDS_P1;SDS_P2;PMS_P1;PMS_P2;Temp;Humidity;BMP_temperature;BMP_pressure;BME280_temperature;BME280_humidity;BME280_pressure;Samples;Min_cycle;Max_cycle;Signal;HPM_P1;HPM_P2
2021/07/28 00:02:00;;;;;;;2.07;1.97;;;;;;;16.79;100.00;100276.88;5009966;28;20287;-73
2021/07/28 00:04:25;;;;;;;1.93;1.73;;;;;;;16.75;100.00;100267.69;5010414;28;20200;-72
2021/07/28 00:06:50;;;;;;;2.03;1.57;;;;;;;16.70;100.00;100239.59;5010521;28;20176;-73
2021/07/28 00:09:16;;;;;;;2.00;1.80;;;;;;;16.65;100.00;100237.88;5010182;28;20184;-72
2021/07/28 00:11:41;;;;;;;2.40;2.20;;;;;;;16.59;100.00;100223.53;5025092;28;20188;-72
2021/07/28 00:14:08;;;;;;;1.40;1.30;;;;;;;16.54;100.00;100225.78;5010333;28;20296;-72
2021/07/28 00:16:33;;;;;;;1.90;1.80;;;;;;;16.53;100.00;100216.72;5010203;28;20275;-72
2021/07/28 00:24:08;;;;;;;1.90;1.80;;;;;;;16.57;100.00;100211.28;5014271;28;20187;-72
2021/07/28 00:26:33;;;;;;;2.07;1.90;;;;;;;16.59;100.00;100207.00;5013990;28;20184;-71
2021/07/28 00:28:58;;;;;;;1.60;1.50;;;;;;;16.62;100.00;100200.75;5013828;28;20181;-72
2021/07/28 00:31:24;;;;;;;1.70;1.60;;;;;;;16.63;100.00;100196.03;5013509;28;20200;-72
2021/07/28 00:33:49;;;;;;;4.13;2.03;;;;;;;16.69;100.00;100189.13;5013933;28;20252;-72
2021/07/28 00:36:15;;;;;;;1.73;1.53;;;;;;;16.71;100.00;100197.06;5013800;28;20180;-72
2021/07/28 00:38:40;;;;;;;2.00;1.60;;;;;;;16.71;100.00;100191.53;5013805;28;20204;-72
2021/07/28 00:41:06;;;;;;;2.70;1.70;;;;;;;16.70;100.00;100192.69;5013227;28;20183;-72
2021/07/28 00:43:32;;;;;;;1.80;1.70;;;;;;;16.68;100.00;100195.00;5013284;28;20291;-72
2021/07/28 00:45:58;;;;;;;1.70;1.60;;;;;;;16.63;100.00;100191.31;5013907;28;20535;-72
2021/07/28 00:48:23;;;;;;;1.33;1.23;;;;;;;16.64;100.00;100192.94;5013634;28;20180;-72
2021/07/28 00:50:48;;;;;;;2.63;2.43;;;;;;;16.67;100.00;100191.47;5013626;28;20211;-72
2021/07/28 00:53:20;;;;;;;2.10;1.97;;;;;;;16.70;100.00;100189.94;5013641;28;20636;-73
2021/07/28 00:55:51;;;;;;;1.60;1.50;;;;;;;16.73;100.00;100180.94;5013748;28;20172;-72
2021/07/28 00:58:18;;;;;;;3.10;1.60;;;;;;;16.77;100.00;100170.78;5014059;28;20243;-72
2021/07/28 01:00:44;;;;;;;2.27;2.03;;;;;;;16.78;100.00;100191.69;5013463;28;20183;-72
2021/07/28 01:03:10;;;;;;;1.80;1.70;;;;;;;16.80;100.00;100183.88;5011507;28;20657;-72
2021/07/28 01:05:37;;;;;;;1.87;1.73;;;;;;;16.83;100.00;100177.63;5012421;28;20181;-72
2021/07/28 01:08:03;;;;;;;2.07;1.80;;;;;;;16.86;100.00;100168.63;5013972;28;20172;-72
2021/07/28 01:10:28;;;;;;;1.80;1.70;;;;;;;16.86;100.00;100168.63;5013264;28;20263;-72
2021/07/28 01:12:55;;;;;;;3.03;1.80;;;;;;;16.90;100.00;100158.47;5013454;28;20176;-72
2021/07/28 01:18:03;;;;;;;2.13;1.90;;;;;;;16.89;100.00;100157.66;5013627;28;20193;-72
2021/07/28 01:20:35;;;;;;;2.60;1.93;;;;;;;16.98;100.00;100162.19;5013584;28;20296;-72
2021/07/28 01:23:03;;;;;;;2.00;1.90;;;;;;;17.10;100.00;100173.09;5013002;28;20657;-73
2021/07/28 01:25:31;;;;;;;1.73;1.63;;;;;;;17.05;100.00;100176.91;5013611;28;20284;-73
2021/07/28 01:27:57;;;;;;;2.17;1.97;;;;;;;17.07;99.49;100171.88;5013464;28;20179;-72
2021/07/28 01:30:23;;;;;;;1.70;1.60;;;;;;;17.02;99.82;100163.06;5013557;28;20208;-72
2021/07/28 01:32:49;;;;;;;1.53;1.27;;;;;;;16.99;99.89;100161.81;5012113;28;20223;-72
2021/07/28 01:35:15;;;;;;;1.57;1.47;;;;;;;16.86;100.00;100154.81;5013212;28;20573;-72
2021/07/28 01:37:44;;;;;;;2.30;2.10;;;;;;;16.78;100.00;100169.59;5013060;28;20181;-72
2021/07/28 01:40:11;;;;;;;1.93;1.67;;;;;;;16.70;100.00;100189.94;5012824;28;20179;-72
2021/07/28 01:42:43;;;;;;;3.60;1.63;;;;;;;16.68;100.00;100186.75;5013424;28;20231;-72
2021/07/28 01:45:11;;;;;;;1.60;1.50;;;;;;;16.55;100.00;100164.75;5013328;28;20263;-72
2021/07/28 01:47:37;;;;;;;1.53;1.43;;;;;;;16.50;100.00;100165.03;5012985;28;20204;-72
2021/07/28 01:50:03;;;;;;;2.07;1.93;;;;;;;16.47;100.00;100162.16;5012974;28;20286;-72
2021/07/28 01:52:28;;;;;;;2.47;2.07;;;;;;;16.40;100.00;100157.28;5012730;28;20176;-72
2021/07/28 01:54:54;;;;;;;1.80;1.70;;;;;;;16.39;100.00;100186.03;5012856;28;20187;-72
2021/07/28 01:57:19;;;;;;;2.40;2.20;;;;;;;16.34;100.00;100169.72;5012835;28;20231;-72
2021/07/28 01:59:44;;;;;;;1.13;1.03;;;;;;;16.22;100.00;100167.91;5012735;28;20230;-72
2021/07/28 02:02:10;;;;;;;1.47;1.37;;;;;;;16.16;100.00;100160.22;5012454;28;20216;-72
2021/07/28 02:04:35;;;;;;;5.17;1.50;;;;;;;16.10;100.00;100150.63;5012664;28;20255;-72
2021/07/28 02:07:00;;;;;;;2.43;1.80;;;;;;;16.07;100.00;100160.44;5012948;28;20176;-72
2021/07/28 02:09:26;;;;;;;1.53;1.40;;;;;;;16.06;100.00;100150.56;5012844;28;20180;-72
2021/07/28 02:11:51;;;;;;;1.87;1.77;;;;;;;16.01;100.00;100366.56;5012399;28;20199;-72
2021/07/28 02:14:16;;;;;;;1.50;1.40;;;;;;;15.97;100.00;100329.84;5012602;28;20541;-72
2021/07/28 02:16:42;;;;;;;1.67;1.57;;;;;;;15.93;100.00;100265.56;5012371;28;20264;-72
2021/07/28 02:19:07;;;;;;;2.73;1.90;;;;;;;15.92;100.00;100254.91;5012393;28;20264;-72
2021/07/28 02:21:33;;;;;;;1.27;1.17;;;;;;;15.91;100.00;100265.13;5012343;28;20679;-73
2021/07/28 02:23:59;;;;;;;1.80;1.70;;;;;;;15.91;100.00;100207.25;5012254;28;20192;-71
2021/07/28 02:26:24;;;;;;;2.27;1.73;;;;;;;15.89;100.00;100203.22;5012588;28;20207;-72
2021/07/28 02:28:52;;;;;;;5.33;1.67;;;;;;;15.90;100.00;100207.59;5012151;28;20230;-72
2021/07/28 02:31:17;;;;;;;2.37;2.17;;;;;;;15.90;100.00;100191.84;5012404;28;20646;-71
2021/07/28 02:33:42;;;;;;;1.97;1.87;;;;;;;15.91;100.00;100176.94;5012053;28;20200;-72
2021/07/28 02:36:08;;;;;;;1.80;1.70;;;;;;;15.91;100.00;100160.41;5012064;28;20597;-73
2021/07/28 02:38:33;;;;;;;2.40;1.80;;;;;;;15.91;100.00;100168.69;5012074;28;20242;-72
2021/07/28 02:40:59;;;;;;;1.57;1.47;;;;;;;15.89;100.00;100157.19;5011706;28;20172;-73
2021/07/28 02:43:24;;;;;;;2.80;1.87;;;;;;;15.87;100.00;100176.03;5011362;28;20205;-72
2021/07/28 02:45:49;;;;;;;1.93;1.73;;;;;;;15.87;100.00;100180.75;5011954;28;20273;-72
2021/07/28 02:48:15;;;;;;;1.80;1.70;;;;;;;15.85;100.00;100172.03;5011858;28;20180;-72
2021/07/28 02:50:40;;;;;;;1.50;1.40;;;;;;;15.82;100.00;100173.56;5010401;28;20209;-72
2021/07/28 02:53:05;;;;;;;1.97;1.87;;;;;;;15.86;100.00;100162.63;5011695;28;20207;-72
2021/07/28 02:55:31;;;;;;;1.90;1.73;;;;;;;15.86;100.00;100201.19;5011671;28;20181;-72
2021/07/28 02:57:56;;;;;;;1.93;1.70;;;;;;;15.84;100.00;100171.22;5011622;28;20180;-72
2021/07/28 03:00:21;;;;;;;1.70;1.60;;;;;;;15.85;100.00;100192.13;5011769;28;20292;-73
2021/07/28 03:02:47;;;;;;;1.57;1.47;;;;;;;15.83;100.00;100185.38;5026739;28;20750;-72
2021/07/28 03:05:14;;;;;;;1.73;1.63;;;;;;;15.79;100.00;100182.53;5011695;28;20223;-72
2021/07/28 03:07:39;;;;;;;2.83;2.00;;;;;;;15.75;100.00;100184.38;5011627;28;20190;-72
2021/07/28 03:10:05;;;;;;;3.07;1.60;;;;;;;15.73;100.00;100184.72;5011820;28;20176;-72
2021/07/28 03:12:31;;;;;;;4.23;2.20;;;;;;;15.74;100.00;100197.34;5011350;28;20172;-72
2021/07/28 03:14:56;;;;;;;2.47;1.90;;;;;;;15.74;100.00;100191.81;5011429;28;20192;-72
2021/07/28 03:17:22;;;;;;;1.97;1.83;;;;;;;15.75;100.00;100424.00;5011566;28;20165;-73
2021/07/28 03:19:48;;;;;;;2.47;1.80;;;;;;;15.79;100.00;100218.34;5011348;28;20252;-72
2021/07/28 03:22:13;;;;;;;2.50;1.90;;;;;;;15.77;100.00;100218.69;5011222;28;20227;-73
2021/07/28 03:24:39;;;;;;;4.10;1.87;;;;;;;15.83;100.00;100215.66;5011291;28;20255;-73
2021/07/28 03:27:05;;;;;;;2.67;1.97;;;;;;;15.81;100.00;100210.53;5011308;28;20685;-72
2021/07/28 03:29:30;;;;;;;1.87;1.77;;;;;;;15.87;100.00;100208.28;5011713;28;20185;-73
2021/07/28 03:31:56;;;;;;;2.13;1.93;;;;;;;15.84;100.00;100198.78;5011206;28;20299;-72
2021/07/28 03:34:21;;;;;;;2.33;2.13;;;;;;;15.77;100.00;100355.63;5011551;28;20176;-72
2021/07/28 03:36:47;;;;;;;1.90;1.80;;;;;;;15.85;100.00;100236.19;5011214;28;20218;-72
2021/07/28 03:39:12;;;;;;;1.97;1.87;;;;;;;15.80;100.00;100227.41;5010825;28;20177;-73
2021/07/28 03:41:37;;;;;;;2.17;1.97;;;;;;;15.88;100.00;100221.72;5010978;28;20203;-72
2021/07/28 03:44:03;;;;;;;1.70;1.60;;;;;;;15.93;100.00;100226.19;5011161;28;20173;-73
2021/07/28 03:46:28;;;;;;;2.33;2.13;;;;;;;16.03;100.00;100226.44;5011059;28;20176;-72
2021/07/28 03:48:54;;;;;;;2.10;2.00;;;;;;;15.99;100.00;100216.50;5011213;28;20266;-73
2021/07/28 03:51:19;;;;;;;1.70;1.60;;;;;;;16.06;100.00;100222.22;5010915;28;20169;-73
2021/07/28 03:53:45;;;;;;;2.00;1.80;;;;;;;16.11;100.00;100210.91;5011035;28;20176;-74
2021/07/28 03:56:10;;;;;;;1.47;1.37;;;;;;;16.13;100.00;100207.81;5013196;28;20517;-73
2021/07/28 03:58:35;;;;;;;1.83;1.70;;;;;;;16.16;100.00;100215.34;5015373;28;20177;-72
2021/07/28 04:01:00;;;;;;;2.07;1.73;;;;;;;16.05;100.00;100204.03;5015099;28;20259;-73
2021/07/28 04:03:26;;;;;;;1.77;1.67;;;;;;;15.98;100.00;100192.84;5014799;28;20208;-73
2021/07/28 04:05:54;;;;;;;2.57;2.20;;;;;;;16.03;100.00;100189.81;5014953;28;20172;-73
2021/07/28 04:08:20;;;;;;;2.27;2.07;;;;;;;16.13;100.00;100194.03;5014915;28;20603;-73
2021/07/28 04:10:46;;;;;;;2.27;1.60;;;;;;;16.15;100.00;100187.00;5014811;28;20204;-72
2021/07/28 04:13:11;;;;;;;2.40;1.83;;;;;;;16.14;100.00;100193.66;5014610;28;20172;-72
2021/07/28 04:15:37;;;;;;;1.63;1.53;;;;;;;16.15;100.00;100198.03;5014544;28;20249;-72
2021/07/28 04:18:02;;;;;;;1.53;1.43;;;;;;;16.10;100.00;100200.25;5014570;28;20177;-72
2021/07/28 04:20:28;;;;;;;1.73;1.63;;;;;;;16.08;100.00;100221.84;5014633;28;20179;-72
2021/07/28 04:22:53;;;;;;;3.70;2.17;;;;;;;16.11;100.00;100213.69;5014373;28;20196;-73
2021/07/28 04:25:18;;;;;;;2.03;1.93;;;;;;;16.14;100.00;100188.16;5013300;28;20677;-73
2021/07/28 04:27:44;;;;;;;2.20;2.00;;;;;;;16.25;100.00;100185.69;5014539;28;20173;-73
2021/07/28 04:30:10;;;;;;;3.30;2.17;;;;;;;15.97;100.00;100196.75;5014364;28;20684;-73
2021/07/28 04:32:35;;;;;;;2.47;2.27;;;;;;;15.77;100.00;100209.63;5014730;28;20207;-73
2021/07/28 04:35:01;;;;;;;3.40;1.73;;;;;;;15.91;100.00;100221.03;5014682;28;20620;-73
2021/07/28 04:37:26;;;;;;;2.30;2.10;;;;;;;15.80;100.00;100210.88;5014281;28;20184;-73
2021/07/28 04:39:51;;;;;;;2.17;1.97;;;;;;;15.83;100.00;100210.16;5014028;28;20184;-72
2021/07/28 04:42:17;;;;;;;2.50;2.03;;;;;;;15.90;100.00;100191.84;5014044;28;20663;-72
2021/07/28 04:44:42;;;;;;;2.27;1.93;;;;;;;15.98;100.00;100209.38;5014012;28;20625;-73
2021/07/28 04:47:07;;;;;;;2.23;2.03;;;;;;;16.10;100.00;100203.00;5013720;28;20267;-72
2021/07/28 04:49:33;;;;;;;2.40;1.80;;;;;;;16.15;100.00;100188.94;5013428;28;20176;-72
2021/07/28 04:51:58;;;;;;;2.00;1.87;;;;;;;16.14;100.00;100212.16;5013674;28;20184;-72
2021/07/28 04:54:23;;;;;;;2.40;2.20;;;;;;;16.22;100.00;100192.69;5013547;28;20708;-72
2021/07/28 04:56:49;;;;;;;2.10;1.93;;;;;;;16.23;100.00;100190.75;5013417;28;20192;-72
2021/07/28 04:59:14;;;;;;;2.70;2.10;;;;;;;16.27;100.00;100188.88;5013371;28;20195;-72
2021/07/28 05:01:39;;;;;;;2.30;2.10;;;;;;;16.23;100.00;100183.28;5013075;28;20692;-72
2021/07/28 05:04:05;;;;;;;1.87;1.77;;;;;;;16.22;100.00;100175.38;5013332;28;20177;-72
2021/07/28 05:06:31;;;;;;;2.53;2.33;;;;;;;16.20;100.00;100177.66;5012775;28;20211;-72
2021/07/28 05:08:57;;;;;;;2.20;2.10;;;;;;;16.23;100.00;100175.00;5013610;28;20407;-72
2021/07/28 05:11:22;;;;;;;2.73;2.53;;;;;;;16.25;100.00;100172.69;5012803;28;20540;-72
2021/07/28 05:13:48;;;;;;;2.57;2.17;;;;;;;16.32;100.00;100181.13;5013179;28;20259;-73
2021/07/28 05:16:13;;;;;;;2.07;1.97;;;;;;;16.39;100.00;100190.75;5012955;28;20195;-72
2021/07/28 05:18:39;;;;;;;2.60;2.40;;;;;;;16.43;100.00;100191.63;5013025;28;20165;-75
2021/07/28 05:21:04;;;;;;;2.00;1.90;;;;;;;16.52;100.00;100195.81;5012787;28;20188;-75
2021/07/28 05:23:30;;;;;;;2.93;2.33;;;;;;;16.49;100.00;100199.28;5012827;28;20204;-74
2021/07/28 05:25:55;;;;;;;2.00;1.90;;;;;;;16.46;100.00;100186.19;5012880;28;20641;-74
2021/07/28 05:28:20;;;;;;;2.00;1.90;;;;;;;16.52;100.00;100197.75;5012836;28;20401;-74
2021/07/28 05:30:46;;;;;;;2.30;2.13;;;;;;;16.58;100.00;100197.13;5012683;28;20248;-74
2021/07/28 05:33:11;;;;;;;3.43;2.00;;;;;;;16.55;100.00;100189.56;5011730;28;20203;-73
2021/07/28 05:35:37;;;;;;;2.00;1.90;;;;;;;16.61;100.00;100199.16;5009781;28;20561;-75
2021/07/28 05:38:03;;;;;;;2.43;2.23;;;;;;;16.65;100.00;100189.03;5012902;28;20192;-74
2021/07/28 05:40:30;;;;;;;1.80;1.70;;;;;;;16.71;100.00;100197.84;5013221;28;20437;-74
2021/07/28 05:42:55;;;;;;;3.43;2.30;;;;;;;16.75;100.00;100195.97;5012895;28;20671;-74
2021/07/28 05:45:21;;;;;;;2.10;1.90;;;;;;;16.83;100.00;100199.69;5013082;28;20279;-73
2021/07/28 05:47:46;;;;;;;2.10;1.97;;;;;;;16.87;100.00;100201.38;5013000;28;20176;-74
2021/07/28 05:50:13;;;;;;;2.23;2.03;;;;;;;16.98;100.00;100206.34;5012827;28;20176;-74
2021/07/28 05:52:39;;;;;;;4.83;2.30;;;;;;;17.01;100.00;100206.41;5012659;28;20177;-74
2021/07/28 05:55:04;;;;;;;2.80;2.60;;;;;;;17.03;100.00;100201.34;5013951;28;20188;-75
2021/07/28 05:57:30;;;;;;;2.23;1.90;;;;;;;17.08;100.00;100212.09;5015386;28;20203;-74
2021/07/28 05:59:55;;;;;;;1.73;1.63;;;;;;;17.15;100.00;100206.72;5013056;28;20219;-74
2021/07/28 06:02:21;;;;;;;1.87;1.77;;;;;;;17.12;99.68;100207.47;5012646;28;20318;-74
2021/07/28 06:04:46;;;;;;;3.27;2.30;;;;;;;17.18;99.46;100213.47;5012678;28;20180;-74
2021/07/28 06:07:12;;;;;;;2.87;2.50;;;;;;;17.23;100.00;100211.25;5012686;28;20211;-74
2021/07/28 06:09:38;;;;;;;3.27;2.17;;;;;;;17.27;99.68;100207.75;5012657;28;20173;-74
2021/07/28 06:12:03;;;;;;;1.90;1.80;;;;;;;17.36;99.55;100197.28;5010426;28;20226;-76
2021/07/28 06:14:29;;;;;;;2.07;1.93;;;;;;;17.34;98.33;100191.31;5012255;28;20185;-71
2021/07/28 06:16:54;;;;;;;2.27;2.10;;;;;;;17.34;98.40;100191.31;5012287;28;20184;-73
2021/07/28 06:19:19;;;;;;;2.13;1.97;;;;;;;17.39;98.61;100199.34;5011665;28;20545;-72
2021/07/28 06:21:45;;;;;;;2.33;2.10;;;;;;;17.41;98.89;100203.34;5012478;28;20204;-73
2021/07/28 06:24:10;;;;;;;5.83;3.30;;;;;;;17.40;97.56;100209.22;5012334;28;20180;-73
2021/07/28 06:26:35;;;;;;;2.07;1.97;;;;;;;17.39;96.93;100218.69;5012303;28;20534;-73
2021/07/28 06:29:01;;;;;;;1.97;1.87;;;;;;;17.48;98.38;100191.63;5012162;28;20219;-73
2021/07/28 06:31:26;;;;;;;2.50;2.30;;;;;;;17.54;96.47;100199.25;5012290;28;20555;-73
2021/07/28 06:33:51;;;;;;;2.37;1.57;;;;;;;17.62;96.02;100191.91;5012150;28;20208;-74
2021/07/28 06:36:17;;;;;;;1.23;1.13;;;;;;;17.66;95.02;100194.75;5010691;28;20644;-73
2021/07/28 06:38:43;;;;;;;1.50;1.40;;;;;;;17.69;93.83;100205.91;5000374;28;20256;-73
2021/07/28 06:41:08;;;;;;;1.70;1.60;;;;;;;17.81;94.69;100204.94;4992185;28;20660;-73
2021/07/28 06:43:34;;;;;;;3.80;2.23;;;;;;;17.89;93.25;100203.09;4992453;28;20201;-74
2021/07/28 06:46:00;;;;;;;2.80;2.60;;;;;;;17.98;91.60;101066.28;4992627;28;20585;-73
2021/07/28 06:48:26;;;;;;;3.30;1.33;;;;;;;18.08;90.19;100720.94;4992240;28;20208;-73
2021/07/28 06:50:52;;;;;;;1.70;1.60;;;;;;;18.22;92.47;100557.31;4992369;28;20702;-73
2021/07/28 06:53:17;;;;;;;2.97;2.40;;;;;;;18.23;90.34;100480.69;4992099;28;20177;-73
2021/07/28 06:55:43;;;;;;;1.60;1.50;;;;;;;18.21;91.21;100469.97;4992123;28;20621;-73
2021/07/28 06:58:08;;;;;;;3.53;1.90;;;;;;;18.21;91.60;100455.34;4992027;28;20203;-73
2021/07/28 07:00:33;;;;;;;1.50;1.40;;;;;;;18.27;91.01;100427.03;4992150;28;20264;-73
2021/07/28 07:02:59;;;;;;;1.60;1.47;;;;;;;18.34;92.38;100407.00;4991794;28;20244;-74
2021/07/28 07:05:25;;;;;;;1.70;1.60;;;;;;;18.42;90.92;100378.34;4991926;28;20565;-73
2021/07/28 07:07:50;;;;;;;1.60;1.50;;;;;;;18.54;91.34;100380.94;5008492;28;20191;-72
2021/07/28 07:10:16;;;;;;;2.03;1.93;;;;;;;18.63;88.04;100361.31;5002937;28;20280;-72
2021/07/28 07:12:41;;;;;;;2.23;2.13;;;;;;;18.66;89.46;100347.59;4998994;28;20177;-72
2021/07/28 07:15:07;;;;;;;1.70;1.60;;;;;;;18.52;88.01;100339.00;4994133;28;20235;-72
2021/07/28 07:17:33;;;;;;;1.97;1.47;;;;;;;18.41;88.49;100319.44;5003191;28;20188;-72
2021/07/28 07:19:58;;;;;;;2.40;2.20;;;;;;;18.36;89.31;100302.31;5011656;28;20640;-72
2021/07/28 07:22:24;;;;;;;2.10;1.90;;;;;;;18.51;92.13;100304.19;5011247;28;20243;-72
2021/07/28 07:24:49;;;;;;;1.83;1.73;;;;;;;18.64;89.61;100304.84;5011571;28;20271;-73
2021/07/28 07:27:14;;;;;;;1.13;1.03;;;;;;;18.79;87.38;100297.56;5011307;28;20176;-72
2021/07/28 07:29:40;;;;;;;4.10;2.00;;;;;;;18.77;86.95;100292.41;5011328;28;20512;-73
2021/07/28 07:32:05;;;;;;;1.27;1.17;;;;;;;18.86;88.85;100292.16;5010678;28;20184;-72
2021/07/28 07:34:31;;;;;;;2.40;2.20;;;;;;;18.78;89.29;100291.22;5011262;28;20193;-73
2021/07/28 07:36:56;;;;;;;2.67;2.43;;;;;;;18.91;90.38;100273.25;5011018;28;20569;-73
2021/07/28 07:39:21;;;;;;;2.17;1.97;;;;;;;19.06;89.24;100285.34;5010447;28;20380;-73
2021/07/28 07:41:47;;;;;;;2.83;2.20;;;;;;;19.10;88.68;100274.34;5010267;28;20239;-73
2021/07/28 07:44:12;;;;;;;1.70;1.60;;;;;;;19.07;88.82;100278.63;5010864;28;20168;-72
2021/07/28 07:46:38;;;;;;;2.37;2.27;;;;;;;19.01;88.77;100275.41;5010462;28;20545;-73
2021/07/28 07:49:03;;;;;;;2.57;2.37;;;;;;;18.96;89.75;100270.19;5010531;28;20208;-72
2021/07/28 07:51:30;;;;;;;1.70;1.60;;;;;;;18.82;89.15;100263.63;5010167;28;20207;-72
2021/07/28 07:53:56;;;;;;;2.20;2.10;;;;;;;18.75;89.90;100261.53;5010339;28;20168;-72
2021/07/28 07:56:22;;;;;;;2.50;2.30;;;;;;;18.76;89.62;100257.59;5010440;28;20181;-73
2021/07/28 07:58:47;;;;;;;1.67;1.57;;;;;;;18.84;89.58;100262.09;5010462;28;20178;-73
2021/07/28 08:01:12;;;;;;;2.47;2.27;;;;;;;18.87;89.42;100263.31;5010329;28;20203;-73
2021/07/28 08:03:39;;;;;;;2.23;2.03;;;;;;;19.01;88.54;100261.56;5010202;28;20290;-73
2021/07/28 08:06:06;;;;;;;0.87;0.83;;;;;;;19.08;87.19;100258.06;5010390;28;20227;-73
2021/07/28 08:08:31;;;;;;;2.77;1.83;;;;;;;19.09;87.72;100250.56;5010252;28;20471;-73
2021/07/28 08:10:57;;;;;;;1.97;1.87;;;;;;;19.03;85.54;100247.34;5010520;28;20203;-72
2021/07/28 08:13:23;;;;;;;1.23;1.13;;;;;;;19.08;87.85;100246.22;5010042;28;20185;-73
2021/07/28 08:15:49;;;;;;;0.93;0.90;;;;;;;19.01;86.91;100242.19;5010078;28;20199;-73
2021/07/28 08:18:14;;;;;;;1.87;1.57;;;;;;;19.03;86.56;100237.06;5010819;28;20177;-72
2021/07/28 08:20:40;;;;;;;2.60;2.40;;;;;;;19.11;86.70;100234.41;5010319;28;20257;-73
2021/07/28 08:23:05;;;;;;;1.70;1.40;;;;;;;19.10;86.55;100238.34;5009797;28;20204;-73
2021/07/28 08:25:31;;;;;;;3.07;2.63;;;;;;;19.02;86.28;100223.59;5010265;28;20172;-72
2021/07/28 08:27:56;;;;;;;1.90;1.80;;;;;;;19.01;87.66;100228.31;5008912;28;20191;-73
2021/07/28 08:30:21;;;;;;;3.03;2.80;;;;;;;18.95;87.69;100221.53;5009996;28;20181;-72
2021/07/28 08:32:47;;;;;;;1.43;1.33;;;;;;;18.93;87.11;100221.06;5009808;28;20393;-72
2021/07/28 08:35:12;;;;;;;3.60;3.10;;;;;;;18.93;88.65;100220.28;5010485;28;20188;-73
2021/07/28 08:37:41;;;;;;;2.60;2.40;;;;;;;18.89;88.50;100217.47;5010055;28;20173;-73
2021/07/28 08:40:12;;;;;;;3.97;2.73;;;;;;;18.87;87.99;100211.50;5009877;28;20546;-73
2021/07/28 08:42:40;;;;;;;2.67;2.30;;;;;;;19.00;89.60;100215.66;5012563;28;20605;-73
2021/07/28 08:45:07;;;;;;;2.27;2.10;;;;;;;19.10;87.49;100202.34;5013741;28;20527;-73
2021/07/28 08:47:35;;;;;;;2.97;2.67;;;;;;;19.07;88.06;100208.63;5013494;28;20181;-73
2021/07/28 08:50:03;;;;;;;3.20;2.90;;;;;;;19.13;87.82;100201.59;5013618;28;20530;-73
2021/07/28 08:52:29;;;;;;;4.67;2.30;;;;;;;19.22;88.69;100205.66;5013148;28;20659;-74
2021/07/28 08:54:55;;;;;;;3.17;2.97;;;;;;;19.22;87.91;100200.13;5013596;28;20176;-73
2021/07/28 08:57:20;;;;;;;2.53;2.33;;;;;;;19.22;88.36;100197.34;5013604;28;20632;-73
2021/07/28 08:59:45;;;;;;;2.60;2.40;;;;;;;19.38;87.95;100185.28;5013508;28;20183;-73
2021/07/28 09:02:11;;;;;;;3.43;3.13;;;;;;;19.66;87.81;100205.03;5013016;28;20743;-73
2021/07/28 09:04:40;;;;;;;2.37;2.17;;;;;;;19.84;85.66;100196.94;5013267;28;20181;-73
2021/07/28 09:07:14;;;;;;;2.37;2.17;;;;;;;19.97;83.23;100203.81;5013566;28;20173;-73
2021/07/28 09:09:56;;;;;;;1.83;1.73;;;;;;;20.17;81.48;100207.16;5013267;28;20585;-73
2021/07/28 09:12:33;;;;;;;1.90;1.80;;;;;;;20.20;80.09;100196.09;5012981;28;20179;-73
2021/07/28 09:15:01;;;;;;;2.37;2.17;;;;;;;20.09;80.56;100244.31;5013073;28;20188;-74
2021/07/28 09:17:28;;;;;;;2.27;1.93;;;;;;;19.92;80.89;100202.16;5013375;28;20223;-73
2021/07/28 09:19:55;;;;;;;1.67;1.57;;;;;;;19.86;80.09;100177.94;5013107;28;20230;-73
2021/07/28 09:22:21;;;;;;;3.40;1.50;;;;;;;19.84;79.91;100181.09;5012782;28;20196;-73
2021/07/28 09:25:13;;;;;;;2.20;2.00;;;;;;;19.88;81.36;100179.16;5013442;28;20187;-73
2021/07/28 09:27:40;;;;;;;1.30;1.20;;;;;;;19.93;79.72;100186.31;5012987;28;20176;-73
2021/07/28 09:30:06;;;;;;;3.80;2.10;;;;;;;19.95;80.79;100191.47;5012853;28;20535;-73
2021/07/28 09:32:32;;;;;;;1.10;1.10;;;;;;;19.92;79.88;100176.41;5012652;28;20179;-74
2021/07/28 09:34:58;;;;;;;2.37;2.17;;;;;;;20.03;81.17;100180.09;5028031;28;20181;-73
2021/07/28 09:37:24;;;;;;;2.37;2.20;;;;;;;20.14;81.07;100185.75;5012735;28;20255;-73
2021/07/28 09:39:50;;;;;;;2.60;2.40;;;;;;;20.16;80.06;100172.28;5012882;28;20176;-74
2021/07/28 09:42:25;;;;;;;2.23;2.03;;;;;;;20.30;80.56;100175.19;5012434;28;20200;-73
2021/07/28 09:44:55;;;;;;;2.60;2.30;;;;;;;20.52;80.87;100181.72;5012545;28;20226;-73
2021/07/28 09:47:22;;;;;;;2.80;2.40;;;;;;;20.68;79.39;100185.00;5012614;28;20628;-73
2021/07/28 09:50:10;;;;;;;2.10;2.00;;;;;;;20.87;79.83;100178.41;5012294;28;20172;-73
2021/07/28 09:52:36;;;;;;;2.33;1.70;;;;;;;20.76;77.02;100170.00;5011221;28;20247;-73
2021/07/28 09:55:24;;;;;;;1.50;1.40;;;;;;;20.78;77.07;100173.19;5012082;28;20628;-73
2021/07/28 09:57:54;;;;;;;2.27;2.07;;;;;;;20.97;77.71;100165.75;5012361;28;20173;-73
2021/07/28 10:00:20;;;;;;;1.13;1.13;;;;;;;21.25;74.25;100168.69;5012559;28;20223;-74
2021/07/28 10:02:46;;;;;;;2.07;1.97;;;;;;;21.44;73.82;100173.16;5011972;28;20200;-74
2021/07/28 10:05:12;;;;;;;0.83;0.83;;;;;;;21.62;73.04;100164.88;5012117;28;20657;-73
2021/07/28 10:07:40;;;;;;;4.77;2.80;;;;;;;21.61;74.17;100161.28;5011985;28;20177;-73
2021/07/28 10:10:09;;;;;;;2.30;2.10;;;;;;;21.71;74.51;100154.19;5011920;28;20173;-73
2021/07/28 10:12:37;;;;;;;2.13;1.93;;;;;;;21.95;75.49;100172.88;5011546;28;20162;-72
2021/07/28 10:15:04;;;;;;;2.97;2.33;;;;;;;22.01;73.43;100155.81;5012059;28;20188;-72
2021/07/28 10:17:32;;;;;;;1.83;1.67;;;;;;;21.81;70.67;100147.81;5010682;28;20235;-72
2021/07/28 10:19:58;;;;;;;2.17;1.80;;;;;;;21.63;70.57;100135.88;5011778;28;20179;-72
2021/07/28 10:22:24;;;;;;;1.87;1.77;;;;;;;21.71;72.10;100126.38;5011601;28;20298;-72
2021/07/28 10:24:50;;;;;;;2.07;1.97;;;;;;;21.57;71.30;100113.22;5011827;28;20636;-72
2021/07/28 10:27:16;;;;;;;1.87;1.77;;;;;;;21.91;73.05;100119.22;5011641;28;20178;-72
2021/07/28 10:29:42;;;;;;;2.30;2.20;;;;;;;22.13;71.38;100114.50;5011800;28;20183;-72
2021/07/28 10:32:08;;;;;;;2.00;1.90;;;;;;;22.25;68.61;100122.44;5011558;28;20217;-72
2021/07/28 10:34:35;;;;;;;1.63;1.53;;;;;;;22.43;66.84;100122.44;5011588;28;20284;-72
2021/07/28 10:37:07;;;;;;;1.93;1.83;;;;;;;22.40;66.54;100336.78;5011809;28;20303;-75
2021/07/28 10:39:41;;;;;;;0.73;0.73;;;;;;;22.32;66.77;100115.28;5010641;28;20835;-75
2021/07/28 10:42:16;;;;;;;2.30;2.07;;;;;;;22.43;67.54;100219.88;5026404;28;20418;-75
2021/07/28 10:44:57;;;;;;;1.40;1.30;;;;;;;22.45;65.75;100111.69;5026631;28;20686;-75
2021/07/28 10:47:42;;;;;;;2.80;1.43;;;;;;;22.73;65.51;100116.41;5011503;28;20207;-75
2021/07/28 10:50:23;;;;;;;1.67;1.57;;;;;;;23.01;68.16;100120.34;5011487;28;20184;-75
2021/07/28 10:52:50;;;;;;;6.67;2.03;;;;;;;22.92;64.08;100101.25;5011022;28;20176;-75
2021/07/28 10:55:20;;;;;;;2.17;1.70;;;;;;;22.95;64.84;100100.44;5011202;28;20204;-75
2021/07/28 10:57:48;;;;;;;1.40;1.23;;;;;;;22.89;64.85;100095.69;5011263;28;20234;-75
2021/07/28 11:00:39;;;;;;;2.17;1.97;;;;;;;22.76;68.63;100092.53;5011719;28;20530;-75
2021/07/28 11:03:17;;;;;;;1.37;1.27;;;;;;;22.69;66.69;100106.47;5011116;28;20675;-76
2021/07/28 11:05:48;;;;;;;1.37;1.27;;;;;;;22.28;67.63;100079.13;5010998;28;20227;-75
2021/07/28 11:08:15;;;;;;;2.00;1.90;;;;;;;22.18;66.95;100079.91;5011749;28;20707;-76
2021/07/28 11:10:53;;;;;;;2.37;1.60;;;;;;;22.14;66.75;100070.78;5011298;28;20192;-75
2021/07/28 11:13:24;;;;;;;1.37;1.27;;;;;;;22.39;67.10;100073.50;5011084;28;20178;-75
2021/07/28 11:15:59;;;;;;;1.30;1.20;;;;;;;22.56;67.45;100064.31;5010837;28;20188;-75
2021/07/28 11:18:41;;;;;;;1.53;1.43;;;;;;;22.78;63.56;100067.84;5011447;28;20530;-75
2021/07/28 11:21:15;;;;;;;1.23;1.07;;;;;;;22.79;63.07;100053.50;5010802;28;20187;-75
2021/07/28 11:23:46;;;;;;;1.60;1.40;;;;;;;22.80;63.76;100057.09;5025851;28;20216;-75
2021/07/28 11:26:36;;;;;;;1.10;1.10;;;;;;;22.92;64.44;100055.88;5010909;28;20188;-75
2021/07/28 11:29:07;;;;;;;1.90;1.80;;;;;;;23.17;63.88;100064.13;5010632;28;20602;-75